sensor_id;sensor_type;location;lat;lon;timestamp;P1;durP1;ratioP1;P2;durP2;ratioP2
62535;SDS011;63050;47.514;18.920;2022-10-04T00:02:43;6.60;;;1.80;;
62535;SDS011;63050;47.514;18.920;2022-10-04T00:07:48;5.20;;;1.50;;
62535;SDS011;63050;47.514;18.920;2022-10-04T00:13:01;3.60;;;1.60;;
62535;SDS011;63050;47.514;18.920;2022-10-04T00:28:27;3.50;;;1.70;;
62535;SDS011;63050;47.514;18.920;2022-10-04T00:33:52;6.00;;;1.70;;
62535;SDS011;63050;47.514;18.920;2022-10-04T00:44:17;5.80;;;2.10;;
62535;SDS011;63050;47.514;18.920;2022-10-04T00:49:39;6.20;;;2.00;;
62535;SDS011;63050;47.514;18.920;2022-10-04T00:54:41;5.10;;;2.10;;
62535;SDS011;63050;47.514;18.920;2022-10-04T01:05:32;5.70;;;2.10;;
62535;SDS011;63050;47.514;18.920;2022-10-04T01:31:30;4.50;;;2.10;;
62535;SDS011;63050;47.514;18.920;2022-10-04T01:36:32;5.20;;;1.90;;
62535;SDS011;63050;47.514;18.920;2022-10-04T01:46:58;5.10;;;1.80;;
62535;SDS011;63050;47.514;18.920;2022-10-04T01:52:25;6.80;;;2.40;;
62535;SDS011;63050;47.514;18.920;2022-10-04T01:57:29;4.50;;;1.80;;
62535;SDS011;63050;47.514;18.920;2022-10-04T02:02:50;4.00;;;1.80;;
62535;SDS011;63050;47.514;18.920;2022-10-04T02:08:07;5.80;;;1.90;;
62535;SDS011;63050;47.514;18.920;2022-10-04T02:13:09;4.90;;;2.00;;
62535;SDS011;63050;47.514;18.920;2022-10-04T02:18:14;5.60;;;2.30;;
62535;SDS011;63050;47.514;18.920;2022-10-04T02:23:17;7.10;;;2.20;;
62535;SDS011;63050;47.514;18.920;2022-10-04T02:28:19;3.70;;;1.80;;
62535;SDS011;63050;47.514;18.920;2022-10-04T02:33:20;5.10;;;2.00;;
62535;SDS011;63050;47.514;18.920;2022-10-04T02:38:22;5.00;;;1.70;;
62535;SDS011;63050;47.514;18.920;2022-10-04T02:43:33;4.10;;;2.00;;
62535;SDS011;63050;47.514;18.920;2022-10-04T02:48:39;5.60;;;1.80;;
62535;SDS011;63050;47.514;18.920;2022-10-04T02:53:49;5.40;;;1.90;;
62535;SDS011;63050;47.514;18.920;2022-10-04T02:59:13;4.90;;;2.20;;
62535;SDS011;63050;47.514;18.920;2022-10-04T03:04:15;4.90;;;1.70;;
62535;SDS011;63050;47.514;18.920;2022-10-04T03:09:20;5.10;;;1.70;;
62535;SDS011;63050;47.514;18.920;2022-10-04T03:14:22;4.30;;;1.70;;
62535;SDS011;63050;47.514;18.920;2022-10-04T03:19:25;4.70;;;2.30;;
62535;SDS011;63050;47.514;18.920;2022-10-04T03:24:28;4.70;;;1.90;;
62535;SDS011;63050;47.514;18.920;2022-10-04T03:29:31;4.10;;;1.40;;
62535;SDS011;63050;47.514;18.920;2022-10-04T03:34:35;5.70;;;2.10;;
62535;SDS011;63050;47.514;18.920;2022-10-04T03:39:38;4.50;;;1.60;;
62535;SDS011;63050;47.514;18.920;2022-10-04T03:44:43;4.90;;;1.60;;
62535;SDS011;63050;47.514;18.920;2022-10-04T03:49:44;4.90;;;1.80;;
62535;SDS011;63050;47.514;18.920;2022-10-04T03:54:46;3.20;;;1.70;;
62535;SDS011;63050;47.514;18.920;2022-10-04T03:59:49;3.80;;;1.90;;
62535;SDS011;63050;47.514;18.920;2022-10-04T04:05:01;4.20;;;1.80;;
62535;SDS011;63050;47.514;18.920;2022-10-04T04:10:06;3.80;;;1.90;;
62535;SDS011;63050;47.514;18.920;2022-10-04T04:15:16;6.70;;;1.60;;
62535;SDS011;63050;47.514;18.920;2022-10-04T04:20:19;3.80;;;1.80;;
62535;SDS011;63050;47.514;18.920;2022-10-04T04:25:28;3.40;;;1.70;;
62535;SDS011;63050;47.514;18.920;2022-10-04T04:30:31;4.10;;;2.30;;
62535;SDS011;63050;47.514;18.920;2022-10-04T04:35:33;5.70;;;2.40;;
62535;SDS011;63050;47.514;18.920;2022-10-04T04:40:36;4.30;;;1.60;;
62535;SDS011;63050;47.514;18.920;2022-10-04T04:45:37;5.90;;;1.60;;
62535;SDS011;63050;47.514;18.920;2022-10-04T04:50:38;3.40;;;1.40;;
62535;SDS011;63050;47.514;18.920;2022-10-04T04:55:41;4.10;;;1.40;;
62535;SDS011;63050;47.514;18.920;2022-10-04T05:01:00;3.80;;;1.70;;
62535;SDS011;63050;47.514;18.920;2022-10-04T05:06:03;3.40;;;1.90;;
62535;SDS011;63050;47.514;18.920;2022-10-04T05:11:10;5.70;;;1.90;;
62535;SDS011;63050;47.514;18.920;2022-10-04T05:16:19;4.50;;;1.70;;
62535;SDS011;63050;47.514;18.920;2022-10-04T05:21:24;4.60;;;1.90;;
62535;SDS011;63050;47.514;18.920;2022-10-04T05:26:28;5.50;;;2.10;;
62535;SDS011;63050;47.514;18.920;2022-10-04T05:36:52;3.30;;;1.60;;
62535;SDS011;63050;47.514;18.920;2022-10-04T05:47:01;5.10;;;2.00;;
62535;SDS011;63050;47.514;18.920;2022-10-04T05:52:12;5.00;;;1.90;;
62535;SDS011;63050;47.514;18.920;2022-10-04T06:03:08;4.60;;;1.80;;
62535;SDS011;63050;47.514;18.920;2022-10-04T06:24:26;4.60;;;1.70;;
62535;SDS011;63050;47.514;18.920;2022-10-04T06:29:30;5.30;;;1.80;;
62535;SDS011;63050;47.514;18.920;2022-10-04T07:01:34;4.70;;;1.90;;
62535;SDS011;63050;47.514;18.920;2022-10-04T07:06:37;4.00;;;1.80;;
62535;SDS011;63050;47.514;18.920;2022-10-04T07:11:52;3.70;;;1.50;;
62535;SDS011;63050;47.514;18.920;2022-10-04T07:17:02;5.50;;;1.70;;
62535;SDS011;63050;47.514;18.920;2022-10-04T07:32:42;6.50;;;1.70;;
62535;SDS011;63050;47.514;18.920;2022-10-04T07:37:52;6.00;;;3.70;;
62535;SDS011;63050;47.514;18.920;2022-10-04T07:43:04;10.00;;;4.30;;
62535;SDS011;63050;47.514;18.920;2022-10-04T07:53:16;6.60;;;3.10;;
62535;SDS011;63050;47.514;18.920;2022-10-04T08:14:43;3.60;;;1.70;;
62535;SDS011;63050;47.514;18.920;2022-10-04T08:30:14;5.20;;;1.70;;
62535;SDS011;63050;47.514;18.920;2022-10-04T08:35:49;5.60;;;1.30;;
62535;SDS011;63050;47.514;18.920;2022-10-04T08:51:42;4.50;;;1.20;;
62535;SDS011;63050;47.514;18.920;2022-10-04T08:56:56;4.00;;;1.00;;
62535;SDS011;63050;47.514;18.920;2022-10-04T09:12:49;4.00;;;1.30;;
62535;SDS011;63050;47.514;18.920;2022-10-04T10:00:18;2.40;;;1.10;;
62535;SDS011;63050;47.514;18.920;2022-10-04T10:10:32;3.90;;;1.80;;
62535;SDS011;63050;47.514;18.920;2022-10-04T10:15:57;3.10;;;1.10;;
62535;SDS011;63050;47.514;18.920;2022-10-04T10:36:27;3.40;;;1.00;;
62535;SDS011;63050;47.514;18.920;2022-10-04T11:25:31;2.60;;;1.00;;
62535;SDS011;63050;47.514;18.920;2022-10-04T11:35:27;2.80;;;1.20;;
62535;SDS011;63050;47.514;18.920;2022-10-04T11:46:18;2.50;;;1.30;;
62535;SDS011;63050;47.514;18.920;2022-10-04T11:51:37;2.50;;;1.30;;
62535;SDS011;63050;47.514;18.920;2022-10-04T11:56:48;2.40;;;1.20;;
62535;SDS011;63050;47.514;18.920;2022-10-04T12:34:29;2.20;;;0.80;;
62535;SDS011;63050;47.514;18.920;2022-10-04T12:50:01;2.20;;;1.00;;
62535;SDS011;63050;47.514;18.920;2022-10-04T13:00:23;1.60;;;0.90;;
62535;SDS011;63050;47.514;18.920;2022-10-04T13:05:42;2.30;;;0.70;;
62535;SDS011;63050;47.514;18.920;2022-10-04T13:21:13;1.80;;;1.00;;
62535;SDS011;63050;47.514;18.920;2022-10-04T13:52:36;1.40;;;0.70;;
62535;SDS011;63050;47.514;18.920;2022-10-04T13:58:10;2.30;;;0.70;;
62535;SDS011;63050;47.514;18.920;2022-10-04T14:36:07;2.10;;;0.80;;
62535;SDS011;63050;47.514;18.920;2022-10-04T15:08:44;3.40;;;1.00;;
62535;SDS011;63050;47.514;18.920;2022-10-04T15:13:54;2.50;;;0.90;;
62535;SDS011;63050;47.514;18.920;2022-10-04T15:35:01;2.80;;;1.50;;
62535;SDS011;63050;47.514;18.920;2022-10-04T15:45:45;2.50;;;1.30;;
62535;SDS011;63050;47.514;18.920;2022-10-04T15:57:17;3.90;;;1.10;;
62535;SDS011;63050;47.514;18.920;2022-10-04T16:29:34;2.90;;;1.40;;
62535;SDS011;63050;47.514;18.920;2022-10-04T16:34:56;2.80;;;1.50;;
62535;SDS011;63050;47.514;18.920;2022-10-04T16:55:54;2.90;;;1.80;;
62535;SDS011;63050;47.514;18.920;2022-10-04T17:06:27;6.60;;;2.10;;
62535;SDS011;63050;47.514;18.920;2022-10-04T17:11:47;5.60;;;2.60;;
62535;SDS011;63050;47.514;18.920;2022-10-04T17:17:00;10.50;;;3.00;;
62535;SDS011;63050;47.514;18.920;2022-10-04T17:27:49;5.80;;;4.20;;
62535;SDS011;63050;47.514;18.920;2022-10-04T17:38:00;15.90;;;9.50;;
62535;SDS011;63050;47.514;18.920;2022-10-04T17:53:47;14.90;;;8.20;;
62535;SDS011;63050;47.514;18.920;2022-10-04T17:59:11;19.40;;;13.10;;
62535;SDS011;63050;47.514;18.920;2022-10-04T18:04:18;23.20;;;14.40;;
62535;SDS011;63050;47.514;18.920;2022-10-04T18:09:28;23.00;;;13.80;;
62535;SDS011;63050;47.514;18.920;2022-10-04T18:30:23;16.40;;;11.20;;
62535;SDS011;63050;47.514;18.920;2022-10-04T18:40:32;16.00;;;9.80;;
62535;SDS011;63050;47.514;18.920;2022-10-04T18:45:35;15.20;;;9.70;;
62535;SDS011;63050;47.514;18.920;2022-10-04T18:50:37;12.40;;;7.90;;
62535;SDS011;63050;47.514;18.920;2022-10-04T18:55:50;23.40;;;9.00;;
62535;SDS011;63050;47.514;18.920;2022-10-04T19:01:01;11.40;;;8.10;;
62535;SDS011;63050;47.514;18.920;2022-10-04T19:06:46;13.40;;;9.50;;
62535;SDS011;63050;47.514;18.920;2022-10-04T19:11:51;12.00;;;9.50;;
62535;SDS011;63050;47.514;18.920;2022-10-04T19:17:04;16.70;;;10.40;;
62535;SDS011;63050;47.514;18.920;2022-10-04T19:27:42;14.20;;;8.10;;
62535;SDS011;63050;47.514;18.920;2022-10-04T19:33:53;10.70;;;7.60;;
62535;SDS011;63050;47.514;18.920;2022-10-04T19:43:58;10.40;;;7.60;;
62535;SDS011;63050;47.514;18.920;2022-10-04T19:49:10;10.80;;;6.20;;
62535;SDS011;63050;47.514;18.920;2022-10-04T19:54:20;10.50;;;7.10;;
62535;SDS011;63050;47.514;18.920;2022-10-04T19:59:38;10.40;;;6.40;;
62535;SDS011;63050;47.514;18.920;2022-10-04T20:04:40;11.40;;;6.40;;
62535;SDS011;63050;47.514;18.920;2022-10-04T20:14:47;8.70;;;5.00;;
62535;SDS011;63050;47.514;18.920;2022-10-04T20:19:48;11.70;;;4.70;;
62535;SDS011;63050;47.514;18.920;2022-10-04T20:24:49;7.20;;;4.80;;
62535;SDS011;63050;47.514;18.920;2022-10-04T20:34:52;9.40;;;5.30;;
62535;SDS011;63050;47.514;18.920;2022-10-04T20:39:54;6.60;;;4.90;;
62535;SDS011;63050;47.514;18.920;2022-10-04T20:50:32;11.50;;;6.60;;
62535;SDS011;63050;47.514;18.920;2022-10-04T20:55:35;13.70;;;6.10;;
62535;SDS011;63050;47.514;18.920;2022-10-04T21:00:38;8.80;;;5.50;;
62535;SDS011;63050;47.514;18.920;2022-10-04T21:21:54;5.30;;;3.70;;
62535;SDS011;63050;47.514;18.920;2022-10-04T21:26:54;6.20;;;3.60;;
62535;SDS011;63050;47.514;18.920;2022-10-04T21:31:58;6.20;;;3.70;;
62535;SDS011;63050;47.514;18.920;2022-10-04T21:36:59;4.50;;;3.20;;
62535;SDS011;63050;47.514;18.920;2022-10-04T21:42:00;6.50;;;3.50;;
62535;SDS011;63050;47.514;18.920;2022-10-04T21:47:01;6.20;;;3.20;;
62535;SDS011;63050;47.514;18.920;2022-10-04T21:52:03;5.10;;;2.90;;
62535;SDS011;63050;47.514;18.920;2022-10-04T21:57:04;4.70;;;3.40;;
62535;SDS011;63050;47.514;18.920;2022-10-04T22:02:05;4.70;;;3.20;;
62535;SDS011;63050;47.514;18.920;2022-10-04T22:07:07;8.20;;;3.50;;
62535;SDS011;63050;47.514;18.920;2022-10-04T22:12:09;6.10;;;3.00;;
62535;SDS011;63050;47.514;18.920;2022-10-04T22:17:10;3.80;;;2.60;;
62535;SDS011;63050;47.514;18.920;2022-10-04T22:22:15;4.50;;;2.20;;
62535;SDS011;63050;47.514;18.920;2022-10-04T22:27:17;3.40;;;2.30;;
62535;SDS011;63050;47.514;18.920;2022-10-04T22:32:21;3.20;;;1.80;;
62535;SDS011;63050;47.514;18.920;2022-10-04T22:37:24;4.10;;;2.60;;
62535;SDS011;63050;47.514;18.920;2022-10-04T22:42:26;4.90;;;2.90;;
62535;SDS011;63050;47.514;18.920;2022-10-04T22:47:28;6.10;;;2.60;;
62535;SDS011;63050;47.514;18.920;2022-10-04T22:52:31;3.50;;;2.00;;
62535;SDS011;63050;47.514;18.920;2022-10-04T22:57:31;3.20;;;1.90;;
62535;SDS011;63050;47.514;18.920;2022-10-04T23:02:32;3.50;;;2.30;;
62535;SDS011;63050;47.514;18.920;2022-10-04T23:07:33;3.60;;;1.70;;
62535;SDS011;63050;47.514;18.920;2022-10-04T23:12:34;4.90;;;1.90;;
62535;SDS011;63050;47.514;18.920;2022-10-04T23:17:35;2.70;;;1.70;;
62535;SDS011;63050;47.514;18.920;2022-10-04T23:22:39;3.00;;;1.50;;
62535;SDS011;63050;47.514;18.920;2022-10-04T23:27:43;3.60;;;1.60;;
62535;SDS011;63050;47.514;18.920;2022-10-04T23:32:46;3.90;;;1.90;;
62535;SDS011;63050;47.514;18.920;2022-10-04T23:37:48;1.80;;;1.20;;
62535;SDS011;63050;47.514;18.920;2022-10-04T23:42:50;3.10;;;1.40;;
62535;SDS011;63050;47.514;18.920;2022-10-04T23:47:54;4.60;;;1.40;;
62535;SDS011;63050;47.514;18.920;2022-10-04T23:52:57;3.00;;;1.60;;
62535;SDS011;63050;47.514;18.920;2022-10-04T23:58:14;5.00;;;1.30;;
